Time;durP1;ratioP1;P1;durP2;ratioP2;P2;SDS_P1;SDS_P2;PMS_P1;PMS_P2;Temp;Humidity;BMP_temperature;BMP_pressure;BME280_temperature;BME280_humidity;BME280_pressure;Samples;Min_cycle;Max_cycle;Signal;HPM_P1;HPM_P2
2021/08/02 00:00:55;;;;;;;38.10;27.98;;;;;;;9.10;100.00;94280.47;5092294;28;20048;-60
2021/08/02 00:03:44;;;;;;;44.15;28.77;;;;;;;9.15;100.00;94261.75;5092222;28;20028;-61
2021/08/02 00:06:20;;;;;;;41.60;29.10;;;;;;;9.17;100.00;94270.28;5092263;28;20051;-61
2021/08/02 00:08:55;;;;;;;42.67;31.23;;;;;;;9.21;100.00;94256.09;5091657;28;20020;-60
2021/08/02 00:11:21;;;;;;;44.03;28.75;;;;;;;9.24;100.00;94250.22;5092206;28;20047;-60
2021/08/02 00:13:49;;;;;;;45.58;30.08;;;;;;;9.23;100.00;94248.63;5091805;28;20479;-61
2021/08/02 00:16:17;;;;;;;48.42;32.05;;;;;;;9.27;100.00;94243.50;5076055;28;20024;-59
2021/08/02 00:18:45;;;;;;;48.20;31.70;;;;;;;9.35;100.00;94228.78;5092160;28;20024;-61
2021/08/02 00:21:13;;;;;;;47.63;32.80;;;;;;;9.41;100.00;94228.44;5073857;28;20028;-61
2021/08/02 00:23:39;;;;;;;46.92;32.15;;;;;;;9.49;100.00;94227.06;5092155;28;20024;-59
2021/08/02 00:26:09;;;;;;;53.83;32.65;;;;;;;9.47;100.00;94219.31;5091982;28;20024;-61
2021/08/02 00:28:44;;;;;;;46.53;32.17;;;;;;;9.50;100.00;94213.41;5092120;28;20020;-60
2021/08/02 00:31:12;;;;;;;48.38;33.50;;;;;;;9.57;100.00;94221.13;5092066;28;20024;-60
2021/08/02 00:33:37;;;;;;;47.92;33.10;;;;;;;9.65;100.00;94206.34;5073744;28;20051;-61
2021/08/02 00:36:09;;;;;;;48.53;34.67;;;;;;;9.69;100.00;94202.03;5092058;28;20063;-60
2021/08/02 00:38:49;;;;;;;47.08;33.03;;;;;;;9.73;100.00;94203.06;5091910;28;20039;-60
2021/08/02 00:42:09;;;;;;;48.70;33.55;;;;;;;9.72;100.00;94196.13;5091934;28;20024;-60
2021/08/02 00:44:56;;;;;;;49.83;33.10;;;;;;;9.73;100.00;94187.03;5009663;28;20065;-60
2021/08/02 00:47:34;;;;;;;52.70;34.45;;;;;;;9.80;100.00;94188.28;5067777;28;20125;-60
2021/08/02 00:50:12;;;;;;;52.95;34.30;;;;;;;9.83;100.00;94177.03;5053528;28;20027;-61
2021/08/02 00:52:47;;;;;;;49.75;33.45;;;;;;;9.90;100.00;94176.72;5053893;28;20051;-61
2021/08/02 00:55:18;;;;;;;51.42;33.80;;;;;;;9.94;100.00;94164.34;5071531;28;20044;-61
2021/08/02 00:57:46;;;;;;;51.50;34.38;;;;;;;10.01;100.00;94162.16;5053665;28;20021;-61
2021/08/02 01:00:18;;;;;;;49.33;32.90;;;;;;;10.13;100.00;94161.75;5053332;28;20475;-59
2021/08/02 01:02:48;;;;;;;46.55;32.72;;;;;;;10.20;100.00;94164.88;5071483;28;20032;-60
2021/08/02 01:05:18;;;;;;;55.03;32.97;;;;;;;10.31;100.00;94144.19;5070452;28;20467;-60
2021/08/02 01:08:17;;;;;;;45.40;31.58;;;;;;;10.44;100.00;94135.47;5053450;28;20431;-60
2021/08/02 01:10:46;;;;;;;45.42;31.60;;;;;;;10.46;100.00;94130.63;5070870;28;20033;-61
2021/08/02 01:13:16;;;;;;;43.60;30.00;;;;;;;10.45;100.00;94137.06;5071154;28;20039;-58
2021/08/02 01:15:45;;;;;;;48.10;30.67;;;;;;;10.47;100.00;94129.53;5055625;28;20091;-60
2021/08/02 01:18:15;;;;;;;40.65;29.08;;;;;;;10.52;100.00;94132.13;5070871;28;20020;-61
2021/08/02 01:20:45;;;;;;;47.05;29.23;;;;;;;10.60;100.00;94118.13;5054163;28;20276;-60
2021/08/02 01:23:13;;;;;;;42.58;29.80;;;;;;;10.69;100.00;94118.28;5075028;28;20023;-61
2021/08/02 01:25:38;;;;;;;42.85;29.70;;;;;;;10.68;100.00;94114.00;5074700;28;20025;-61
2021/08/02 01:28:13;;;;;;;40.08;28.45;;;;;;;10.66;100.00;94116.19;5075025;28;20173;-61
2021/08/02 01:30:45;;;;;;;46.95;30.85;;;;;;;10.61;100.00;94124.28;5056819;28;20033;-61
2021/08/02 01:33:10;;;;;;;45.63;31.37;;;;;;;10.52;100.00;94121.44;5073756;28;20024;-61
2021/08/02 01:35:39;;;;;;;38.78;27.15;;;;;;;10.43;100.00;94125.84;5074806;28;20024;-61
2021/08/02 01:38:05;;;;;;;41.47;27.85;;;;;;;10.34;100.00;94119.53;5074623;28;20024;-61
2021/08/02 01:40:31;;;;;;;46.00;27.80;;;;;;;10.30;100.00;94121.16;5074478;28;20166;-61
2021/08/02 01:43:06;;;;;;;39.60;27.48;;;;;;;10.24;100.00;94120.47;5074608;28;20029;-59
2021/08/02 01:45:50;;;;;;;39.33;26.67;;;;;;;10.16;100.00;94123.72;5093670;28;20047;-59
2021/08/02 01:48:26;;;;;;;34.28;25.75;;;;;;;10.09;100.00;94120.59;5094960;28;20016;-60
2021/08/02 01:51:08;;;;;;;34.72;24.33;;;;;;;10.06;100.00;94123.84;5076676;28;20032;-60
2021/08/02 01:53:42;;;;;;;33.17;24.45;;;;;;;10.06;100.00;94121.16;5094592;28;20024;-58
2021/08/02 01:56:20;;;;;;;36.78;26.70;;;;;;;10.08;100.00;94127.81;5094693;28;20414;-61
2021/08/02 01:59:10;;;;;;;35.67;24.75;;;;;;;10.08;100.00;94135.84;5093205;28;20450;-60
2021/08/02 02:01:42;;;;;;;33.67;24.90;;;;;;;10.06;100.00;94129.97;5094334;28;20090;-60
2021/08/02 02:04:08;;;;;;;29.80;22.10;;;;;;;10.03;100.00;94125.22;5093194;28;20020;-61
2021/08/02 02:06:40;;;;;;;33.80;24.60;;;;;;;10.00;100.00;94131.13;5094721;28;20032;-60
2021/08/02 02:09:14;;;;;;;30.73;22.67;;;;;;;9.97;100.00;94130.88;5094394;28;20491;-60
2021/08/02 02:11:43;;;;;;;31.35;22.88;;;;;;;9.93;100.00;94132.53;5094206;28;20046;-61
2021/08/02 02:14:11;;;;;;;32.17;23.70;;;;;;;9.88;100.00;94142.22;5092991;28;20020;-61
2021/08/02 02:16:48;;;;;;;29.13;21.60;;;;;;;9.84;100.00;94132.34;5081039;28;20024;-61
2021/08/02 02:19:14;;;;;;;31.85;23.20;;;;;;;9.82;100.00;94137.19;5094191;28;20088;-61
2021/08/02 02:21:43;;;;;;;31.00;22.60;;;;;;;9.80;100.00;94134.81;5094156;28;20027;-61
2021/08/02 02:24:09;;;;;;;31.70;21.83;;;;;;;9.79;100.00;94132.44;5092804;28;20068;-61
2021/08/02 02:26:35;;;;;;;29.83;22.02;;;;;;;9.78;100.00;94131.63;5093963;28;20028;-61
2021/08/02 02:29:06;;;;;;;28.67;21.70;;;;;;;9.76;100.00;94133.75;5093841;28;20028;-60
2021/08/02 02:31:35;;;;;;;28.17;20.17;;;;;;;9.77;100.00;94129.25;5093641;28;20460;-60
2021/08/02 02:34:05;;;;;;;32.88;22.42;;;;;;;9.79;100.00;94124.41;5093864;28;20111;-59
2021/08/02 02:36:39;;;;;;;33.05;22.23;;;;;;;9.85;100.00;94124.03;5092672;28;20020;-58
2021/08/02 02:39:05;;;;;;;30.58;22.27;;;;;;;9.87;100.00;94127.22;5092687;28;20566;-59
2021/08/02 02:41:38;;;;;;;34.50;21.38;;;;;;;9.87;100.00;94131.78;5092500;28;20031;-59
2021/08/02 02:44:05;;;;;;;30.15;21.40;;;;;;;9.83;100.00;94142.25;5100867;28;20418;-59
2021/08/02 02:46:34;;;;;;;29.77;21.40;;;;;;;9.78;100.00;94145.00;5114103;28;20030;-55
2021/08/02 02:49:03;;;;;;;30.58;20.85;;;;;;;9.74;100.00;94146.63;5113841;28;20428;-56
2021/08/02 02:51:30;;;;;;;29.85;20.00;;;;;;;9.70;100.00;94155.50;5114165;28;20030;-58
2021/08/02 02:53:58;;;;;;;29.08;20.02;;;;;;;9.70;100.00;94147.47;5113848;28;20520;-61
2021/08/02 02:56:27;;;;;;;30.15;20.10;;;;;;;9.75;100.00;94144.75;5114106;28;20028;-61
2021/08/02 02:58:57;;;;;;;27.30;19.83;;;;;;;9.84;100.00;94146.53;5113961;28;20502;-61
2021/08/02 03:01:29;;;;;;;28.60;20.30;;;;;;;9.85;100.00;94150.00;5113585;28;20129;-60
2021/08/02 03:03:58;;;;;;;27.13;19.65;;;;;;;9.82;100.00;94153.25;5113834;28;20076;-61
2021/08/02 03:06:27;;;;;;;23.17;18.33;;;;;;;9.78;100.00;94153.03;5113536;28;20039;-61
2021/08/02 03:08:53;;;;;;;26.23;19.17;;;;;;;9.80;100.00;94158.09;5114016;28;20030;-61
2021/08/02 03:11:20;;;;;;;27.35;19.48;;;;;;;9.81;100.00;94152.44;5095174;28;20031;-60
2021/08/02 03:13:45;;;;;;;28.50;19.27;;;;;;;9.80;100.00;94152.75;5095477;28;20043;-60
2021/08/02 03:16:14;;;;;;;25.27;17.75;;;;;;;9.78;100.00;94161.03;5077819;28;20020;-60
2021/08/02 03:18:42;;;;;;;27.83;19.55;;;;;;;9.78;100.00;94162.91;5095024;28;20537;-61
2021/08/02 03:21:07;;;;;;;28.25;18.65;;;;;;;9.81;100.00;94159.69;5113209;28;20076;-60
2021/08/02 03:24:02;;;;;;;24.70;18.20;;;;;;;9.83;100.00;94165.53;5113308;28;20035;-60
2021/08/02 03:26:32;;;;;;;26.48;18.58;;;;;;;9.81;100.00;94157.78;5094885;28;20509;-60
2021/08/02 03:29:26;;;;;;;24.77;17.00;;;;;;;9.84;100.00;94165.25;5095050;28;20043;-61
2021/08/02 03:32:02;;;;;;;25.75;17.33;;;;;;;9.88;100.00;94157.47;5113301;28;20031;-61
2021/08/02 03:34:33;;;;;;;25.88;17.52;;;;;;;9.88;100.00;94162.81;5113201;28;20031;-60
2021/08/02 03:37:05;;;;;;;23.85;16.85;;;;;;;9.87;100.00;94162.00;5094454;28;20027;-58
2021/08/02 03:39:35;;;;;;;28.20;16.57;;;;;;;9.86;100.00;94160.41;5094899;28;20136;-60
2021/08/02 03:42:02;;;;;;;20.63;16.38;;;;;;;9.85;100.00;94169.50;5094629;28;20034;-61
2021/08/02 03:44:31;;;;;;;21.70;16.70;;;;;;;9.84;100.00;94165.25;5093948;28;20043;-61
2021/08/02 03:46:57;;;;;;;23.67;16.48;;;;;;;9.89;100.00;94167.09;5112914;28;20063;-61
2021/08/02 03:49:26;;;;;;;24.65;17.52;;;;;;;9.95;100.00;94165.16;5112678;28;20470;-60
2021/08/02 03:52:07;;;;;;;21.67;17.83;;;;;;;9.96;100.00;94167.53;5112900;28;20510;-61
2021/08/02 03:54:36;;;;;;;24.52;17.30;;;;;;;9.97;100.00;94165.66;5112931;28;20030;-60
2021/08/02 03:57:02;;;;;;;24.00;16.73;;;;;;;9.98;100.00;94164.56;5112842;28;20485;-61
2021/08/02 03:59:28;;;;;;;20.45;15.43;;;;;;;9.99;100.00;94166.19;5112748;28;20030;-61
2021/08/02 04:01:56;;;;;;;21.73;16.75;;;;;;;9.99;100.00;94166.19;5112597;28;20067;-61
2021/08/02 04:04:21;;;;;;;21.02;16.27;;;;;;;10.00;100.00;94173.13;5112675;28;20062;-61
2021/08/02 04:06:46;;;;;;;24.23;15.95;;;;;;;9.99;100.00;94174.22;5077549;28;20055;-61
2021/08/02 04:09:13;;;;;;;20.65;15.93;;;;;;;9.98;100.00;94172.59;5112583;28;20432;-60
2021/08/02 04:11:40;;;;;;;20.73;14.45;;;;;;;9.96;100.00;94175.56;5094325;28;20612;-61
2021/08/02 04:14:08;;;;;;;22.45;15.88;;;;;;;9.96;100.00;94172.88;5110248;28;20119;-61
2021/08/02 04:16:41;;;;;;;20.38;15.50;;;;;;;9.96;100.00;94180.91;5098407;28;20035;-60
2021/08/02 04:19:07;;;;;;;21.75;15.88;;;;;;;9.96;100.00;94172.09;5112541;28;20028;-58
2021/08/02 04:21:34;;;;;;;22.13;16.23;;;;;;;9.97;100.00;94162.97;5112913;28;20219;-60
2021/08/02 04:24:02;;;;;;;23.77;17.13;;;;;;;10.01;100.00;94172.06;5094492;28;20475;-60
2021/08/02 04:26:37;;;;;;;23.80;16.92;;;;;;;10.04;100.00;94166.13;5094272;28;20559;-60
2021/08/02 04:29:09;;;;;;;23.15;15.88;;;;;;;10.07;100.00;94165.56;5094471;28;20030;-60
2021/08/02 04:31:40;;;;;;;24.00;15.60;;;;;;;10.14;100.00;94168.69;5112569;28;20082;-60
2021/08/02 04:34:08;;;;;;;18.08;14.25;;;;;;;10.20;100.00;94172.91;5094240;28;20039;-60
2021/08/02 04:36:33;;;;;;;16.08;12.25;;;;;;;10.26;100.00;94173.69;5094258;28;20486;-60
2021/08/02 04:39:16;;;;;;;14.95;11.90;;;;;;;10.28;100.00;94172.31;5112450;28;20109;-60
2021/08/02 04:41:44;;;;;;;20.70;12.90;;;;;;;10.32;100.00;94170.69;5112771;28;20028;-60
2021/08/02 04:44:12;;;;;;;18.92;13.80;;;;;;;10.32;100.00;94165.34;5093790;28;20137;-60
2021/08/02 04:46:37;;;;;;;18.15;12.50;;;;;;;10.33;100.00;94169.59;5112355;28;20023;-60
2021/08/02 04:49:03;;;;;;;17.65;12.93;;;;;;;10.39;100.00;94176.47;5112280;28;20436;-60
2021/08/02 04:51:28;;;;;;;19.20;12.93;;;;;;;10.44;100.00;94176.44;5094190;28;20034;-60
2021/08/02 04:53:54;;;;;;;15.00;11.98;;;;;;;10.48;100.00;94175.84;5112201;28;20087;-59
2021/08/02 04:56:25;;;;;;;17.98;12.93;;;;;;;10.50;100.00;94171.78;5115973;28;20088;-60
2021/08/02 04:58:50;;;;;;;17.02;11.65;;;;;;;10.53;100.00;94165.88;5116348;28;20428;-58
2021/08/02 05:01:19;;;;;;;15.25;11.23;;;;;;;10.54;100.00;94167.47;5097768;28;20035;-58
2021/08/02 05:03:47;;;;;;;19.40;11.95;;;;;;;10.54;100.00;94167.47;5097981;28;20023;-59
2021/08/02 05:06:22;;;;;;;17.95;11.48;;;;;;;10.56;100.00;94173.34;5098123;28;20386;-58
2021/08/02 05:08:50;;;;;;;19.60;11.35;;;;;;;10.60;100.00;94165.53;5115801;28;20024;-59
2021/08/02 05:11:18;;;;;;;17.70;12.23;;;;;;;10.67;100.00;94156.06;5115658;28;20359;-57
2021/08/02 05:13:48;;;;;;;17.23;11.93;;;;;;;10.72;100.00;94158.66;5115728;28;20030;-58
2021/08/02 05:16:16;;;;;;;19.00;12.35;;;;;;;10.79;100.00;94165.56;5077923;28;20106;-58
2021/08/02 05:18:42;;;;;;;14.50;11.13;;;;;;;10.81;100.00;94161.50;5115797;28;20051;-58
2021/08/02 05:21:07;;;;;;;14.32;11.35;;;;;;;10.86;100.00;94163.31;5115514;28;20024;-55
2021/08/02 05:23:33;;;;;;;18.27;11.77;;;;;;;10.90;100.00;94162.44;5097140;28;20038;-59
2021/08/02 05:26:01;;;;;;;16.77;11.48;;;;;;;10.95;100.00;94156.22;5115455;28;20028;-60
2021/08/02 05:28:27;;;;;;;16.77;12.18;;;;;;;11.00;100.00;94162.31;5115675;28;20035;-60
2021/08/02 05:30:55;;;;;;;19.42;12.10;;;;;;;11.04;100.00;94155.28;5097186;28;20493;-60
2021/08/02 05:33:21;;;;;;;16.92;11.95;;;;;;;11.09;100.00;94148.28;5097279;28;20042;-60
2021/08/02 05:35:46;;;;;;;16.02;10.75;;;;;;;11.13;100.00;94150.06;5115316;28;20028;-60
2021/08/02 05:38:14;;;;;;;17.42;10.85;;;;;;;11.17;100.00;94147.59;5097273;28;20015;-59
2021/08/02 05:40:40;;;;;;;18.10;11.07;;;;;;;11.21;100.00;94137.91;5115185;28;20100;-60
2021/08/02 05:43:15;;;;;;;15.32;11.48;;;;;;;11.27;100.00;94134.81;5115452;28;20102;-60
2021/08/02 05:45:44;;;;;;;15.23;10.82;;;;;;;11.32;100.00;94132.09;5096923;28;20040;-60
2021/08/02 05:48:09;;;;;;;13.85;10.43;;;;;;;11.38;100.00;94134.66;5096927;28;20031;-60
2021/08/02 05:50:47;;;;;;;15.10;10.77;;;;;;;11.44;100.00;94136.19;5115088;28;20020;-60
2021/08/02 05:53:12;;;;;;;15.45;10.13;;;;;;;11.49;100.00;94128.84;5115028;28;20019;-58
2021/08/02 05:55:38;;;;;;;14.40;10.07;;;;;;;11.56;100.00;94131.16;5115073;28;20031;-60
2021/08/02 05:58:04;;;;;;;12.30;9.23;;;;;;;11.61;100.00;94131.88;5115030;28;20019;-59
2021/08/02 06:00:29;;;;;;;13.38;9.75;;;;;;;11.66;100.00;94127.53;5114917;28;20106;-58
2021/08/02 06:03:12;;;;;;;13.35;9.82;;;;;;;11.68;100.00;94123.44;5096640;28;20028;-60
2021/08/02 06:05:37;;;;;;;14.57;9.95;;;;;;;11.74;100.00;94124.16;5114622;28;20031;-59
2021/08/02 06:08:05;;;;;;;13.50;9.45;;;;;;;11.80;100.00;94125.69;5114282;28;20024;-60
2021/08/02 06:10:31;;;;;;;13.80;9.15;;;;;;;11.84;100.00;94129.38;5115169;28;20027;-59
2021/08/02 06:12:59;;;;;;;15.20;9.82;;;;;;;11.88;100.00;94128.50;5114818;28;20035;-60
2021/08/02 06:15:25;;;;;;;13.93;9.50;;;;;;;11.92;100.00;94135.94;5100798;28;20020;-58
2021/08/02 06:17:50;;;;;;;12.15;9.60;;;;;;;11.95;100.00;94128.13;5094237;28;20031;-58
2021/08/02 06:20:18;;;;;;;12.70;9.20;;;;;;;11.95;100.00;94121.94;5094211;28;20026;-58
2021/08/02 06:22:50;;;;;;;17.52;10.40;;;;;;;11.94;100.00;94133.75;5094269;28;20024;-61
2021/08/02 06:25:16;;;;;;;15.13;10.18;;;;;;;11.98;100.00;94132.09;5094240;28;20435;-61
2021/08/02 06:27:41;;;;;;;12.82;9.73;;;;;;;12.04;100.00;94134.34;5093990;28;20123;-61
2021/08/02 06:30:07;;;;;;;12.18;10.23;;;;;;;12.08;100.00;94126.53;5094074;28;20016;-61
2021/08/02 06:32:32;;;;;;;14.00;9.88;;;;;;;12.08;100.00;94137.25;5093958;28;20474;-61
2021/08/02 06:35:02;;;;;;;13.90;10.52;;;;;;;12.16;100.00;94136.59;5092210;28;20083;-61
2021/08/02 06:37:45;;;;;;;12.52;9.60;;;;;;;12.24;100.00;94127.81;5106449;28;20035;-61
2021/08/02 06:40:15;;;;;;;14.85;10.10;;;;;;;12.31;100.00;94124.75;5103053;28;20028;-61
2021/08/02 06:42:43;;;;;;;11.10;8.68;;;;;;;12.38;100.00;94125.16;5091898;28;20031;-61
2021/08/02 06:45:10;;;;;;;15.50;9.70;;;;;;;12.39;100.00;94124.06;5107554;28;20047;-61
2021/08/02 06:47:36;;;;;;;11.40;9.10;;;;;;;12.38;100.00;94133.22;5095055;28;20036;-58
2021/08/02 06:50:13;;;;;;;13.48;9.20;;;;;;;12.46;100.00;94124.44;5113134;28;20061;-60
2021/08/02 06:52:41;;;;;;;12.70;8.90;;;;;;;12.56;100.00;94118.06;5105852;28;20023;-61
2021/08/02 06:55:13;;;;;;;13.48;9.07;;;;;;;12.53;100.00;94118.66;5109475;28;20020;-61
2021/08/02 06:57:38;;;;;;;11.85;8.90;;;;;;;12.59;100.00;94118.28;5113319;28;20027;-61
2021/08/02 07:00:04;;;;;;;13.27;7.95;;;;;;;12.64;100.00;94110.09;5112899;28;20032;-61
2021/08/02 07:02:37;;;;;;;11.45;8.77;;;;;;;12.77;100.00;94119.22;5094850;28;20033;-61
2021/08/02 07:05:03;;;;;;;11.85;9.15;;;;;;;12.76;100.00;94112.25;5112501;28;20410;-61
2021/08/02 07:07:36;;;;;;;9.32;8.10;;;;;;;12.86;100.00;94111.25;5112852;28;20455;-60
2021/08/02 07:10:08;;;;;;;11.43;8.80;;;;;;;12.95;100.00;94098.69;5091761;28;20118;-60
2021/08/02 07:12:33;;;;;;;13.32;9.48;;;;;;;13.05;100.00;94101.94;5094512;28;20449;-61
2021/08/02 07:14:59;;;;;;;12.07;9.38;;;;;;;13.12;100.00;94098.00;5112424;28;20023;-61
2021/08/02 07:17:24;;;;;;;13.57;9.23;;;;;;;13.23;100.00;94096.69;5095444;28;20027;-61
2021/08/02 07:19:52;;;;;;;10.57;8.63;;;;;;;13.30;100.00;94089.81;5098226;28;20032;-62
2021/08/02 07:22:23;;;;;;;11.02;8.50;;;;;;;13.41;100.00;94092.25;5096519;28;20055;-62
2021/08/02 07:24:48;;;;;;;11.27;8.40;;;;;;;13.50;100.00;94091.22;5098146;28;20106;-62
2021/08/02 07:27:16;;;;;;;12.30;9.23;;;;;;;13.60;100.00;94079.41;5094784;28;20574;-61
2021/08/02 07:29:41;;;;;;;13.38;9.50;;;;;;;13.71;100.00;94078.03;5079509;28;20383;-62
2021/08/02 07:32:07;;;;;;;11.38;8.60;;;;;;;13.85;100.00;94062.59;5079327;28;20062;-62
2021/08/02 07:34:35;;;;;;;11.45;9.00;;;;;;;13.96;100.00;94065.00;5077187;28;20028;-62
2021/08/02 07:37:01;;;;;;;16.95;9.60;;;;;;;14.09;100.00;94058.72;5092886;28;20043;-61
2021/08/02 07:39:31;;;;;;;17.25;10.52;;;;;;;14.27;100.00;94054.19;5108753;28;20518;-61
2021/08/02 07:41:57;;;;;;;12.60;9.32;;;;;;;14.41;100.00;94046.78;5100065;28;20063;-61
2021/08/02 07:44:25;;;;;;;14.98;10.02;;;;;;;14.57;100.00;94045.28;5102537;28;20517;-59
2021/08/02 07:46:52;;;;;;;13.75;9.77;;;;;;;14.61;100.00;94045.44;5081819;28;20040;-61
2021/08/02 07:49:18;;;;;;;16.15;10.77;;;;;;;14.67;100.00;94039.56;5094338;28;20554;-60
2021/08/02 07:51:46;;;;;;;14.48;9.45;;;;;;;14.76;100.00;94036.88;5086684;28;20039;-61
2021/08/02 07:54:11;;;;;;;13.68;10.23;;;;;;;14.83;100.00;94036.41;5095990;28;20663;-61
2021/08/02 07:56:38;;;;;;;15.02;10.45;;;;;;;14.98;100.00;94025.16;5084085;28;20027;-61
2021/08/02 07:59:06;;;;;;;12.88;10.35;;;;;;;15.23;100.00;94013.56;5093400;28;20534;-61
2021/08/02 08:01:37;;;;;;;13.23;10.65;;;;;;;15.36;100.00;94017.97;5088713;28;20032;-61
2021/08/02 08:04:03;;;;;;;12.57;9.63;;;;;;;15.54;100.00;93999.03;5072798;28;20562;-62
2021/08/02 08:06:28;;;;;;;15.13;10.07;;;;;;;15.74;100.00;93992.97;5088128;28;20065;-60
2021/08/02 08:08:53;;;;;;;13.43;9.55;;;;;;;15.89;100.00;93980.84;5089668;28;20032;-62
2021/08/02 08:11:19;;;;;;;12.93;8.95;;;;;;;15.94;100.00;93977.94;5089874;28;20039;-62
2021/08/02 08:13:44;;;;;;;11.20;8.95;;;;;;;16.00;100.00;93982.06;5072806;28;20032;-61
2021/08/02 08:16:10;;;;;;;13.10;9.32;;;;;;;16.18;100.00;93961.16;5088972;28;20020;-60
2021/08/02 08:18:38;;;;;;;13.30;9.70;;;;;;;16.28;100.00;93947.28;5094796;28;20027;-61
2021/08/02 08:21:04;;;;;;;12.05;8.60;;;;;;;16.45;100.00;93930.91;5089477;28;20032;-59
2021/08/02 08:23:32;;;;;;;13.57;9.30;;;;;;;16.56;100.00;93923.22;5093113;28;20032;-62
2021/08/02 08:26:02;;;;;;;12.98;8.98;;;;;;;16.65;100.00;93917.72;5092763;28;20023;-61
2021/08/02 08:28:30;;;;;;;10.98;8.18;;;;;;;16.75;100.00;93898.44;5077655;28;20021;-62
2021/08/02 08:30:55;;;;;;;11.25;8.38;;;;;;;16.92;100.00;93892.84;5091645;28;20146;-62
2021/08/02 08:33:26;;;;;;;12.05;8.77;;;;;;;16.98;100.00;93888.81;5076045;28;20414;-62
2021/08/02 08:35:51;;;;;;;13.27;9.75;;;;;;;16.92;100.00;93892.06;5076942;28;20020;-60
2021/08/02 08:38:17;;;;;;;12.77;8.75;;;;;;;16.92;100.00;93875.81;5095962;28;20023;-61
2021/08/02 08:40:44;;;;;;;12.65;8.88;;;;;;;16.83;100.00;93891.38;5098018;28;20386;-62
2021/08/02 08:43:18;;;;;;;9.25;7.70;;;;;;;16.82;100.00;93909.47;5102959;28;20031;-62
2021/08/02 08:45:44;;;;;;;10.38;7.13;;;;;;;17.00;100.00;93915.53;5098066;28;20093;-62
2021/08/02 08:48:09;;;;;;;9.00;7.10;;;;;;;17.02;100.00;93932.22;5098752;28;20035;-62
2021/08/02 08:50:42;;;;;;;8.82;6.32;;;;;;;17.09;100.00;93949.50;5100820;28;20031;-62
2021/08/02 08:53:15;;;;;;;8.95;6.97;;;;;;;17.33;100.00;93956.09;5064542;28;20134;-62
2021/08/02 08:55:42;;;;;;;11.30;6.18;;;;;;;17.44;100.00;93987.03;5077691;28;20072;-62
2021/08/02 08:58:08;;;;;;;8.15;5.80;;;;;;;17.57;100.00;94031.97;5100870;28;20023;-61
2021/08/02 09:00:42;;;;;;;10.13;6.63;;;;;;;17.60;100.00;94034.03;5098090;28;20031;-61
2021/08/02 09:03:12;;;;;;;9.68;6.90;;;;;;;17.60;100.00;94057.59;5094481;28;20119;-62
2021/08/02 09:05:38;;;;;;;7.97;6.35;;;;;;;17.74;100.00;94062.75;5094136;28;20074;-62
2021/08/02 09:08:05;;;;;;;7.88;5.68;;;;;;;18.08;100.00;94085.97;5094247;28;20055;-62
2021/08/02 09:10:30;;;;;;;10.30;5.85;;;;;;;18.41;100.00;94104.88;5094406;28;20020;-61
2021/08/02 09:12:57;;;;;;;10.05;6.10;;;;;;;18.72;100.00;94188.44;5079247;28;20368;-61
2021/08/02 09:15:31;;;;;;;9.18;6.15;;;;;;;18.92;100.00;94230.19;5093797;28;20032;-62
2021/08/02 09:18:01;;;;;;;10.10;5.93;;;;;;;19.06;100.00;94253.13;5093666;28;20024;-62
2021/08/02 09:20:27;;;;;;;6.53;5.40;;;;;;;19.01;100.00;94285.94;5079799;28;20024;-61
2021/08/02 09:23:14;;;;;;;6.95;4.88;;;;;;;18.95;100.00;94311.69;5093991;28;20028;-62
2021/08/02 09:25:53;;;;;;;9.18;4.97;;;;;;;19.13;100.00;94341.38;5093791;28;20016;-61
2021/08/02 09:28:23;;;;;;;5.90;5.05;;;;;;;18.96;100.00;94391.97;5094084;28;20390;-62
2021/08/02 09:31:04;;;;;;;8.80;5.88;;;;;;;18.91;100.00;94394.13;5094089;28;20031;-61
2021/08/02 09:33:44;;;;;;;8.60;6.15;;;;;;;18.67;100.00;94433.59;5109746;28;20016;-62
2021/08/02 09:36:12;;;;;;;8.93;7.00;;;;;;;18.87;100.00;94423.81;5093914;28;20382;-62
2021/08/02 09:38:37;;;;;;;9.77;6.68;;;;;;;19.32;100.00;94434.75;5076534;28;20032;-59
2021/08/02 09:41:03;;;;;;;9.52;6.20;;;;;;;19.69;100.00;94464.72;5092345;28;20089;-61
2021/08/02 09:43:30;;;;;;;8.23;5.82;;;;;;;19.97;100.00;94532.81;5095195;28;20514;-62
2021/08/02 09:46:03;;;;;;;6.50;5.55;;;;;;;20.27;100.00;94577.72;5106038;28;20047;-62
2021/08/02 09:48:40;;;;;;;9.43;5.47;;;;;;;20.21;100.00;94633.47;5106636;28;20064;-62
2021/08/02 09:51:16;;;;;;;5.60;4.95;;;;;;;20.70;100.00;94679.03;5089917;28;20036;-62
2021/08/02 09:53:55;;;;;;;7.60;5.18;;;;;;;21.21;100.00;94712.19;5091785;28;20057;-62
2021/08/02 09:56:30;;;;;;;7.10;5.07;;;;;;;21.31;100.00;94788.03;5088502;28;20023;-62
2021/08/02 09:58:59;;;;;;;7.10;4.80;;;;;;;21.25;100.00;94797.53;5110955;28;20023;-62
2021/08/02 10:01:24;;;;;;;6.70;4.95;;;;;;;21.64;100.00;94687.88;5108528;28;20031;-62
2021/08/02 10:04:03;;;;;;;8.52;4.30;;;;;;;21.91;100.00;94775.47;5090385;28;20114;-62
2021/08/02 10:06:28;;;;;;;8.32;5.22;;;;;;;22.38;100.00;94834.97;5105435;28;20065;-62
2021/08/02 10:08:55;;;;;;;4.85;4.35;;;;;;;22.69;100.00;94807.78;5111445;28;20102;-62
2021/08/02 10:11:20;;;;;;;5.45;3.83;;;;;;;22.65;100.00;95030.75;5094273;28;20027;-60
2021/08/02 10:13:46;;;;;;;5.30;3.92;;;;;;;22.44;100.00;95019.94;5102961;28;20028;-62
2021/08/02 10:16:36;;;;;;;8.45;4.93;;;;;;;22.88;100.00;94965.53;5076038;28;20028;-59
2021/08/02 10:19:09;;;;;;;5.47;4.03;;;;;;;23.20;100.00;95040.25;5083683;28;20067;-62
2021/08/02 10:21:58;;;;;;;4.30;3.85;;;;;;;22.98;100.00;95095.38;5098255;28;20393;-62
2021/08/02 10:24:24;;;;;;;6.18;3.60;;;;;;;23.10;100.00;95062.56;5092110;28;20095;-62
2021/08/02 10:27:10;;;;;;;5.15;3.90;;;;;;;23.22;100.00;95141.78;5090967;28;20024;-62
2021/08/02 10:29:44;;;;;;;5.55;4.10;;;;;;;23.21;100.00;95136.66;5092813;28;20432;-62
2021/08/02 10:32:50;;;;;;;4.90;4.00;;;;;;;23.65;100.00;95124.75;5109076;28;20185;-62
2021/08/02 10:35:49;;;;;;;7.43;4.10;;;;;;;23.35;100.00;95110.59;5046268;28;20104;-61
2021/08/02 10:38:19;;;;;;;5.75;3.75;;;;;;;23.37;100.00;95234.03;5107705;28;20047;-62
2021/08/02 10:40:56;;;;;;;8.23;5.05;;;;;;;23.28;100.00;95019.38;5059154;28;20097;-62
2021/08/02 10:43:40;;;;;;;4.82;4.10;;;;;;;22.48;100.00;95011.91;5094770;28;20367;-62
2021/08/02 10:46:32;;;;;;;6.68;5.28;;;;;;;22.26;100.00;94940.28;5072444;28;20028;-62
2021/08/02 10:49:13;;;;;;;11.48;5.38;;;;;;;22.67;100.00;95006.63;5071797;28;20024;-62
2021/08/02 10:51:50;;;;;;;5.10;3.97;;;;;;;22.96;100.00;95037.56;5052102;28;20047;-62
2021/08/02 10:54:18;;;;;;;5.88;3.70;;;;;;;22.85;100.00;95078.22;5072215;28;20073;-62
2021/08/02 10:56:51;;;;;;;4.82;3.70;;;;;;;22.40;100.00;95064.66;5072334;28;20035;-61
2021/08/02 10:59:23;;;;;;;5.15;3.60;;;;;;;23.17;100.00;94991.75;5072165;28;20121;-62
2021/08/02 11:01:53;;;;;;;6.60;5.38;;;;;;;23.48;100.00;95130.47;5060303;28;20024;-62
2021/08/02 11:04:22;;;;;;;7.35;4.85;;;;;;;23.68;100.00;95101.41;5067797;28;20028;-62
2021/08/02 11:06:56;;;;;;;6.70;5.13;;;;;;;23.77;100.00;95052.81;5070543;28;20042;-61
2021/08/02 11:09:33;;;;;;;5.72;4.38;;;;;;;23.82;100.00;95098.25;5072043;28;20040;-62
2021/08/02 11:12:08;;;;;;;6.00;4.22;;;;;;;24.02;100.00;95247.75;5070748;28;20021;-62
2021/08/02 11:14:48;;;;;;;4.80;3.90;;;;;;;23.32;100.00;95209.66;5070969;28;20111;-62
2021/08/02 11:17:21;;;;;;;6.10;3.47;;;;;;;23.27;100.00;95173.56;5071454;28;20044;-62
2021/08/02 11:19:46;;;;;;;5.40;3.22;;;;;;;23.33;100.00;95229.56;5059606;28;20129;-61
2021/08/02 11:22:13;;;;;;;5.63;3.63;;;;;;;23.51;100.00;95165.31;5072021;28;20042;-61
2021/08/02 11:24:51;;;;;;;4.88;3.97;;;;;;;23.70;100.00;95233.91;5062322;28;20020;-59
2021/08/02 11:27:19;;;;;;;4.82;3.55;;;;;;;23.76;100.00;95247.34;5071758;28;20025;-60
2021/08/02 11:29:52;;;;;;;4.03;3.33;;;;;;;23.77;100.00;95195.06;5071666;28;20025;-61
2021/08/02 11:32:22;;;;;;;5.28;3.50;;;;;;;23.88;100.00;95187.94;5071366;28;20029;-62